sensor_id;sensor_type;location;lat;lon;timestamp;temperature;humidity
43087;DHT22;28708;52.224;6.924;2023-11-22T00:01:05;4.30;99.90
43087;DHT22;28708;52.224;6.924;2023-11-22T00:03:31;4.20;99.90
43087;DHT22;28708;52.224;6.924;2023-11-22T00:05:57;4.20;99.90
43087;DHT22;28708;52.224;6.924;2023-11-22T00:08:23;4.30;99.90
43087;DHT22;28708;52.224;6.924;2023-11-22T00:10:49;4.30;99.90
43087;DHT22;28708;52.224;6.924;2023-11-22T00:13:14;4.30;99.90
43087;DHT22;28708;52.224;6.924;2023-11-22T00:15:40;4.20;99.90
43087;DHT22;28708;52.224;6.924;2023-11-22T00:18:06;4.20;99.90
43087;DHT22;28708;52.224;6.924;2023-11-22T00:20:32;4.20;99.90
43087;DHT22;28708;52.224;6.924;2023-11-22T00:22:59;4.20;99.90
43087;DHT22;28708;52.224;6.924;2023-11-22T00:25:25;4.20;99.90
43087;DHT22;28708;52.224;6.924;2023-11-22T00:27:50;4.20;99.90
43087;DHT22;28708;52.224;6.924;2023-11-22T00:30:16;4.10;99.90
43087;DHT22;28708;52.224;6.924;2023-11-22T00:32:42;4.10;99.90
43087;DHT22;28708;52.224;6.924;2023-11-22T00:35:08;4.10;99.90
43087;DHT22;28708;52.224;6.924;2023-11-22T00:37:34;4.00;99.90
43087;DHT22;28708;52.224;6.924;2023-11-22T00:40:02;4.10;99.90
43087;DHT22;28708;52.224;6.924;2023-11-22T00:42:39;4.10;99.90
43087;DHT22;28708;52.224;6.924;2023-11-22T00:45:07;4.00;99.90
43087;DHT22;28708;52.224;6.924;2023-11-22T00:47:33;4.00;99.90
43087;DHT22;28708;52.224;6.924;2023-11-22T00:49:59;4.00;99.90
43087;DHT22;28708;52.224;6.924;2023-11-22T00:52:25;4.10;99.90
43087;DHT22;28708;52.224;6.924;2023-11-22T00:54:51;4.10;99.90
43087;DHT22;28708;52.224;6.924;2023-11-22T00:57:16;4.00;99.90
43087;DHT22;28708;52.224;6.924;2023-11-22T00:59:42;4.10;99.90
43087;DHT22;28708;52.224;6.924;2023-11-22T01:02:08;4.10;99.90
43087;DHT22;28708;52.224;6.924;2023-11-22T01:04:34;4.10;99.90
43087;DHT22;28708;52.224;6.924;2023-11-22T01:07:02;4.00;99.90
43087;DHT22;28708;52.224;6.924;2023-11-22T01:09:30;4.00;99.90
43087;DHT22;28708;52.224;6.924;2023-11-22T01:11:57;4.00;99.90
43087;DHT22;28708;52.224;6.924;2023-11-22T01:14:23;4.00;99.90
43087;DHT22;28708;52.224;6.924;2023-11-22T01:16:49;3.90;99.90
43087;DHT22;28708;52.224;6.924;2023-11-22T01:19:15;3.90;99.90
43087;DHT22;28708;52.224;6.924;2023-11-22T01:21:41;4.00;99.90
43087;DHT22;28708;52.224;6.924;2023-11-22T01:24:07;3.90;99.90
43087;DHT22;28708;52.224;6.924;2023-11-22T01:26:33;3.90;99.90
43087;DHT22;28708;52.224;6.924;2023-11-22T01:28:59;3.90;99.90
43087;DHT22;28708;52.224;6.924;2023-11-22T01:31:25;3.90;99.90
43087;DHT22;28708;52.224;6.924;2023-11-22T01:33:53;3.90;99.90
43087;DHT22;28708;52.224;6.924;2023-11-22T01:36:19;3.90;99.90
43087;DHT22;28708;52.224;6.924;2023-11-22T01:38:45;3.90;99.90
43087;DHT22;28708;52.224;6.924;2023-11-22T01:41:12;3.90;99.90
43087;DHT22;28708;52.224;6.924;2023-11-22T01:43:39;3.80;99.90
43087;DHT22;28708;52.224;6.924;2023-11-22T01:46:08;3.90;99.90
43087;DHT22;28708;52.224;6.924;2023-11-22T01:48:36;3.80;99.90
43087;DHT22;28708;52.224;6.924;2023-11-22T01:51:05;3.70;99.90
43087;DHT22;28708;52.224;6.924;2023-11-22T01:53:31;3.70;99.90
43087;DHT22;28708;52.224;6.924;2023-11-22T01:55:57;3.70;99.90
43087;DHT22;28708;52.224;6.924;2023-11-22T01:58:23;3.70;99.90
43087;DHT22;28708;52.224;6.924;2023-11-22T02:00:50;3.60;99.90
43087;DHT22;28708;52.224;6.924;2023-11-22T02:03:17;3.60;99.90
43087;DHT22;28708;52.224;6.924;2023-11-22T02:05:45;3.50;99.90
43087;DHT22;28708;52.224;6.924;2023-11-22T02:08:11;3.50;99.90
43087;DHT22;28708;52.224;6.924;2023-11-22T02:10:38;3.60;99.90
43087;DHT22;28708;52.224;6.924;2023-11-22T02:13:05;3.50;99.90
43087;DHT22;28708;52.224;6.924;2023-11-22T02:15:36;3.50;99.90
43087;DHT22;28708;52.224;6.924;2023-11-22T02:18:04;3.60;99.90
43087;DHT22;28708;52.224;6.924;2023-11-22T02:20:31;3.50;99.90
43087;DHT22;28708;52.224;6.924;2023-11-22T02:23:01;3.40;99.90
43087;DHT22;28708;52.224;6.924;2023-11-22T02:25:26;3.40;99.90
43087;DHT22;28708;52.224;6.924;2023-11-22T02:27:52;3.40;99.90
43087;DHT22;28708;52.224;6.924;2023-11-22T02:30:17;3.30;99.90
43087;DHT22;28708;52.224;6.924;2023-11-22T02:32:44;3.20;99.90
43087;DHT22;28708;52.224;6.924;2023-11-22T02:35:12;3.20;99.90
43087;DHT22;28708;52.224;6.924;2023-11-22T02:37:38;3.10;99.90
43087;DHT22;28708;52.224;6.924;2023-11-22T02:40:17;3.10;99.90
43087;DHT22;28708;52.224;6.924;2023-11-22T02:42:51;3.20;99.90
43087;DHT22;28708;52.224;6.924;2023-11-22T02:45:19;3.10;99.90
43087;DHT22;28708;52.224;6.924;2023-11-22T02:47:45;3.00;99.90
43087;DHT22;28708;52.224;6.924;2023-11-22T02:50:15;3.00;99.90
43087;DHT22;28708;52.224;6.924;2023-11-22T02:52:40;3.00;99.90
43087;DHT22;28708;52.224;6.924;2023-11-22T02:55:07;3.00;99.90
43087;DHT22;28708;52.224;6.924;2023-11-22T02:57:35;3.00;99.90
43087;DHT22;28708;52.224;6.924;2023-11-22T03:00:03;3.00;99.90
43087;DHT22;28708;52.224;6.924;2023-11-22T03:02:29;3.10;99.90
43087;DHT22;28708;52.224;6.924;2023-11-22T03:04:56;3.00;99.90
43087;DHT22;28708;52.224;6.924;2023-11-22T03:07:21;3.00;99.90
43087;DHT22;28708;52.224;6.924;2023-11-22T03:09:47;2.90;99.90
43087;DHT22;28708;52.224;6.924;2023-11-22T03:12:15;2.90;99.90
43087;DHT22;28708;52.224;6.924;2023-11-22T03:14:41;2.90;99.90
43087;DHT22;28708;52.224;6.924;2023-11-22T03:17:06;2.80;99.90
43087;DHT22;28708;52.224;6.924;2023-11-22T03:19:33;2.80;99.90
43087;DHT22;28708;52.224;6.924;2023-11-22T03:22:00;2.80;99.90
43087;DHT22;28708;52.224;6.924;2023-11-22T03:24:29;2.80;99.90
43087;DHT22;28708;52.224;6.924;2023-11-22T03:26:55;2.80;99.90
43087;DHT22;28708;52.224;6.924;2023-11-22T03:29:25;2.80;99.90
43087;DHT22;28708;52.224;6.924;2023-11-22T03:31:50;2.80;99.90
43087;DHT22;28708;52.224;6.924;2023-11-22T03:34:18;2.70;99.90
43087;DHT22;28708;52.224;6.924;2023-11-22T03:36:43;2.80;99.90
43087;DHT22;28708;52.224;6.924;2023-11-22T03:39:09;2.70;99.90
43087;DHT22;28708;52.224;6.924;2023-11-22T03:41:36;2.70;99.90
43087;DHT22;28708;52.224;6.924;2023-11-22T03:44:03;2.70;99.90
43087;DHT22;28708;52.224;6.924;2023-11-22T03:46:30;2.80;99.90
43087;DHT22;28708;52.224;6.924;2023-11-22T03:48:55;2.80;99.90
43087;DHT22;28708;52.224;6.924;2023-11-22T03:51:21;2.70;99.90
43087;DHT22;28708;52.224;6.924;2023-11-22T03:53:47;2.80;99.90
43087;DHT22;28708;52.224;6.924;2023-11-22T03:56:12;2.80;99.90
43087;DHT22;28708;52.224;6.924;2023-11-22T03:58:40;2.70;99.90
43087;DHT22;28708;52.224;6.924;2023-11-22T04:01:05;2.70;99.90
43087;DHT22;28708;52.224;6.924;2023-11-22T04:03:31;2.70;99.90
43087;DHT22;28708;52.224;6.924;2023-11-22T04:05:57;2.70;99.90
43087;DHT22;28708;52.224;6.924;2023-11-22T04:08:24;2.70;99.90
43087;DHT22;28708;52.224;6.924;2023-11-22T04:10:50;2.80;99.90
43087;DHT22;28708;52.224;6.924;2023-11-22T04:13:18;2.90;99.90
43087;DHT22;28708;52.224;6.924;2023-11-22T04:15:43;2.90;99.90
43087;DHT22;28708;52.224;6.924;2023-11-22T04:18:09;3.00;99.90
43087;DHT22;28708;52.224;6.924;2023-11-22T04:20:34;2.90;99.90
43087;DHT22;28708;52.224;6.924;2023-11-22T04:23:00;3.00;99.90
43087;DHT22;28708;52.224;6.924;2023-11-22T04:25:26;3.00;99.90
43087;DHT22;28708;52.224;6.924;2023-11-22T04:27:52;3.00;99.90
43087;DHT22;28708;52.224;6.924;2023-11-22T04:30:19;3.00;99.90
43087;DHT22;28708;52.224;6.924;2023-11-22T04:32:46;3.10;99.90
43087;DHT22;28708;52.224;6.924;2023-11-22T04:35:13;3.00;99.90
43087;DHT22;28708;52.224;6.924;2023-11-22T04:37:39;3.10;99.90
43087;DHT22;28708;52.224;6.924;2023-11-22T04:40:05;3.10;99.90
43087;DHT22;28708;52.224;6.924;2023-11-22T04:42:37;3.20;99.90
43087;DHT22;28708;52.224;6.924;2023-11-22T04:45:03;3.10;99.90
43087;DHT22;28708;52.224;6.924;2023-11-22T04:47:29;3.10;99.90
43087;DHT22;28708;52.224;6.924;2023-11-22T04:49:55;3.10;99.90
43087;DHT22;28708;52.224;6.924;2023-11-22T04:52:20;2.90;99.90
43087;DHT22;28708;52.224;6.924;2023-11-22T04:54:46;3.00;99.90
43087;DHT22;28708;52.224;6.924;2023-11-22T04:57:11;3.00;99.90
43087;DHT22;28708;52.224;6.924;2023-11-22T04:59:37;3.00;99.90
43087;DHT22;28708;52.224;6.924;2023-11-22T05:02:05;3.00;99.90
43087;DHT22;28708;52.224;6.924;2023-11-22T05:04:32;2.90;99.90
43087;DHT22;28708;52.224;6.924;2023-11-22T05:06:58;2.90;99.90
43087;DHT22;28708;52.224;6.924;2023-11-22T05:09:24;2.80;99.90
43087;DHT22;28708;52.224;6.924;2023-11-22T05:11:50;2.90;99.90
43087;DHT22;28708;52.224;6.924;2023-11-22T05:14:17;2.90;99.90
43087;DHT22;28708;52.224;6.924;2023-11-22T05:16:43;2.90;99.90
43087;DHT22;28708;52.224;6.924;2023-11-22T05:19:08;2.80;99.90
43087;DHT22;28708;52.224;6.924;2023-11-22T05:21:34;2.70;99.90
43087;DHT22;28708;52.224;6.924;2023-11-22T05:24:01;2.70;99.90
43087;DHT22;28708;52.224;6.924;2023-11-22T05:26:27;2.60;99.90
43087;DHT22;28708;52.224;6.924;2023-11-22T05:28:52;2.60;99.90
43087;DHT22;28708;52.224;6.924;2023-11-22T05:31:22;2.60;99.90
43087;DHT22;28708;52.224;6.924;2023-11-22T05:33:48;2.50;99.90
43087;DHT22;28708;52.224;6.924;2023-11-22T05:36:14;2.50;99.90
43087;DHT22;28708;52.224;6.924;2023-11-22T05:38:42;2.50;99.90
43087;DHT22;28708;52.224;6.924;2023-11-22T05:41:08;2.40;99.90
43087;DHT22;28708;52.224;6.924;2023-11-22T05:43:34;2.40;99.90
43087;DHT22;28708;52.224;6.924;2023-11-22T05:46:03;2.40;99.90
43087;DHT22;28708;52.224;6.924;2023-11-22T05:48:29;2.50;99.90
43087;DHT22;28708;52.224;6.924;2023-11-22T05:50:55;2.50;99.90
43087;DHT22;28708;52.224;6.924;2023-11-22T05:53:21;2.50;99.90
43087;DHT22;28708;52.224;6.924;2023-11-22T05:55:47;2.50;99.90
43087;DHT22;28708;52.224;6.924;2023-11-22T05:58:17;2.40;99.90
43087;DHT22;28708;52.224;6.924;2023-11-22T06:00:46;2.50;99.90
43087;DHT22;28708;52.224;6.924;2023-11-22T06:03:12;2.40;99.90
43087;DHT22;28708;52.224;6.924;2023-11-22T06:05:39;2.40;99.90
43087;DHT22;28708;52.224;6.924;2023-11-22T06:08:04;2.40;99.90
43087;DHT22;28708;52.224;6.924;2023-11-22T06:10:30;2.30;99.90
43087;DHT22;28708;52.224;6.924;2023-11-22T06:12:56;2.40;99.90
43087;DHT22;28708;52.224;6.924;2023-11-22T06:15:22;2.40;99.90
43087;DHT22;28708;52.224;6.924;2023-11-22T06:17:48;2.50;99.90
43087;DHT22;28708;52.224;6.924;2023-11-22T06:20:15;2.50;99.90
43087;DHT22;28708;52.224;6.924;2023-11-22T06:22:41;2.40;99.90
43087;DHT22;28708;52.224;6.924;2023-11-22T06:25:14;2.50;99.90
43087;DHT22;28708;52.224;6.924;2023-11-22T06:27:39;2.50;99.90
43087;DHT22;28708;52.224;6.924;2023-11-22T06:30:06;2.40;99.90
43087;DHT22;28708;52.224;6.924;2023-11-22T06:32:33;2.40;99.90
43087;DHT22;28708;52.224;6.924;2023-11-22T06:35:01;2.40;99.90
43087;DHT22;28708;52.224;6.924;2023-11-22T06:37:26;2.50;99.90
43087;DHT22;28708;52.224;6.924;2023-11-22T06:39:53;2.50;99.90
43087;DHT22;28708;52.224;6.924;2023-11-22T06:42:18;2.40;99.90
43087;DHT22;28708;52.224;6.924;2023-11-22T06:44:48;2.40;99.90
43087;DHT22;28708;52.224;6.924;2023-11-22T06:47:15;2.40;99.90
43087;DHT22;28708;52.224;6.924;2023-11-22T06:49:40;2.50;99.90
43087;DHT22;28708;52.224;6.924;2023-11-22T06:52:06;2.20;99.90
43087;DHT22;28708;52.224;6.924;2023-11-22T06:54:32;2.20;99.90
43087;DHT22;28708;52.224;6.924;2023-11-22T06:56:57;2.20;99.90
43087;DHT22;28708;52.224;6.924;2023-11-22T06:59:23;2.20;99.90
43087;DHT22;28708;52.224;6.924;2023-11-22T07:01:48;2.30;99.90
43087;DHT22;28708;52.224;6.924;2023-11-22T07:04:14;2.20;99.90
43087;DHT22;28708;52.224;6.924;2023-11-22T07:06:40;2.10;99.90
43087;DHT22;28708;52.224;6.924;2023-11-22T07:09:06;2.10;99.90
43087;DHT22;28708;52.224;6.924;2023-11-22T07:11:36;2.10;99.90
43087;DHT22;28708;52.224;6.924;2023-11-22T07:14:03;2.00;99.90
43087;DHT22;28708;52.224;6.924;2023-11-22T07:16:29;2.00;99.90
43087;DHT22;28708;52.224;6.924;2023-11-22T07:18:56;2.00;99.90
43087;DHT22;28708;52.224;6.924;2023-11-22T07:21:22;2.10;99.90
43087;DHT22;28708;52.224;6.924;2023-11-22T07:23:48;2.10;99.90
43087;DHT22;28708;52.224;6.924;2023-11-22T07:26:14;2.10;99.90
43087;DHT22;28708;52.224;6.924;2023-11-22T07:28:40;2.00;99.90
43087;DHT22;28708;52.224;6.924;2023-11-22T07:31:09;1.90;99.90
43087;DHT22;28708;52.224;6.924;2023-11-22T07:33:35;1.90;99.90
43087;DHT22;28708;52.224;6.924;2023-11-22T07:36:01;1.90;99.90
43087;DHT22;28708;52.224;6.924;2023-11-22T07:38:28;2.00;99.90
43087;DHT22;28708;52.224;6.924;2023-11-22T07:40:54;2.00;99.90
43087;DHT22;28708;52.224;6.924;2023-11-22T07:43:21;2.10;99.90
43087;DHT22;28708;52.224;6.924;2023-11-22T07:45:47;2.10;99.90
43087;DHT22;28708;52.224;6.924;2023-11-22T07:48:14;2.10;99.90
43087;DHT22;28708;52.224;6.924;2023-11-22T07:50:41;2.00;99.90
43087;DHT22;28708;52.224;6.924;2023-11-22T07:53:12;2.10;99.90
43087;DHT22;28708;52.224;6.924;2023-11-22T07:55:39;2.20;99.90
43087;DHT22;28708;52.224;6.924;2023-11-22T07:58:05;2.30;99.90
43087;DHT22;28708;52.224;6.924;2023-11-22T08:00:33;2.40;99.90
43087;DHT22;28708;52.224;6.924;2023-11-22T08:03:00;2.50;99.90
43087;DHT22;28708;52.224;6.924;2023-11-22T08:05:31;2.40;99.90
43087;DHT22;28708;52.224;6.924;2023-11-22T08:08:04;2.50;99.90
43087;DHT22;28708;52.224;6.924;2023-11-22T08:10:37;2.40;99.90
43087;DHT22;28708;52.224;6.924;2023-11-22T08:13:03;2.50;99.90
43087;DHT22;28708;52.224;6.924;2023-11-22T08:15:29;2.60;99.90
43087;DHT22;28708;52.224;6.924;2023-11-22T08:17:55;2.70;99.90
43087;DHT22;28708;52.224;6.924;2023-11-22T08:20:20;2.70;99.90
43087;DHT22;28708;52.224;6.924;2023-11-22T08:22:47;2.80;99.90
43087;DHT22;28708;52.224;6.924;2023-11-22T08:25:15;2.80;99.90
43087;DHT22;28708;52.224;6.924;2023-11-22T08:27:41;3.10;99.90
43087;DHT22;28708;52.224;6.924;2023-11-22T08:30:08;3.20;99.90
43087;DHT22;28708;52.224;6.924;2023-11-22T08:32:39;3.30;99.90
43087;DHT22;28708;52.224;6.924;2023-11-22T08:35:07;3.20;99.90
43087;DHT22;28708;52.224;6.924;2023-11-22T08:37:34;3.30;99.90
43087;DHT22;28708;52.224;6.924;2023-11-22T08:40:02;3.30;99.90
43087;DHT22;28708;52.224;6.924;2023-11-22T08:42:28;3.20;99.90
43087;DHT22;28708;52.224;6.924;2023-11-22T08:44:53;3.20;99.90
43087;DHT22;28708;52.224;6.924;2023-11-22T08:47:19;3.10;99.90
43087;DHT22;28708;52.224;6.924;2023-11-22T08:49:44;3.40;99.90
43087;DHT22;28708;52.224;6.924;2023-11-22T08:52:12;3.40;99.90
43087;DHT22;28708;52.224;6.924;2023-11-22T08:54:38;3.30;99.90
43087;DHT22;28708;52.224;6.924;2023-11-22T08:57:04;3.30;99.90
43087;DHT22;28708;52.224;6.924;2023-11-22T08:59:31;3.40;99.90
43087;DHT22;28708;52.224;6.924;2023-11-22T09:02:06;3.70;99.90
43087;DHT22;28708;52.224;6.924;2023-11-22T09:04:33;3.70;99.90
43087;DHT22;28708;52.224;6.924;2023-11-22T09:06:58;3.70;99.90
43087;DHT22;28708;52.224;6.924;2023-11-22T09:09:24;3.80;99.90
43087;DHT22;28708;52.224;6.924;2023-11-22T09:11:59;3.70;99.90
43087;DHT22;28708;52.224;6.924;2023-11-22T09:14:25;3.80;99.90
43087;DHT22;28708;52.224;6.924;2023-11-22T09:16:51;3.90;99.90
43087;DHT22;28708;52.224;6.924;2023-11-22T09:19:21;4.00;99.90
43087;DHT22;28708;52.224;6.924;2023-11-22T09:21:47;3.80;99.90
43087;DHT22;28708;52.224;6.924;2023-11-22T09:24:12;3.70;99.90
43087;DHT22;28708;52.224;6.924;2023-11-22T09:26:38;3.70;99.90
43087;DHT22;28708;52.224;6.924;2023-11-22T09:29:04;4.00;99.90
43087;DHT22;28708;52.224;6.924;2023-11-22T09:31:30;3.90;99.90
43087;DHT22;28708;52.224;6.924;2023-11-22T09:33:56;4.20;99.90
43087;DHT22;28708;52.224;6.924;2023-11-22T09:36:23;4.30;99.90
43087;DHT22;28708;52.224;6.924;2023-11-22T09:38:50;4.30;99.90
43087;DHT22;28708;52.224;6.924;2023-11-22T09:41:17;4.40;99.90
43087;DHT22;28708;52.224;6.924;2023-11-22T09:43:43;4.40;99.90
43087;DHT22;28708;52.224;6.924;2023-11-22T09:46:13;4.50;99.90
43087;DHT22;28708;52.224;6.924;2023-11-22T09:48:39;4.50;99.90
43087;DHT22;28708;52.224;6.924;2023-11-22T09:51:23;4.60;99.90
43087;DHT22;28708;52.224;6.924;2023-11-22T09:53:56;4.60;99.90
43087;DHT22;28708;52.224;6.924;2023-11-22T09:56:24;4.60;99.90
43087;DHT22;28708;52.224;6.924;2023-11-22T09:58:55;4.70;99.90
43087;DHT22;28708;52.224;6.924;2023-11-22T10:01:22;4.70;99.90
43087;DHT22;28708;52.224;6.924;2023-11-22T10:03:48;4.50;99.90
43087;DHT22;28708;52.224;6.924;2023-11-22T10:06:14;4.60;99.90
43087;DHT22;28708;52.224;6.924;2023-11-22T10:08:41;4.60;99.90
43087;DHT22;28708;52.224;6.924;2023-11-22T10:11:07;4.60;99.90
43087;DHT22;28708;52.224;6.924;2023-11-22T10:13:33;4.40;99.90
43087;DHT22;28708;52.224;6.924;2023-11-22T10:16:13;4.50;99.90
43087;DHT22;28708;52.224;6.924;2023-11-22T10:18:48;4.30;99.90
43087;DHT22;28708;52.224;6.924;2023-11-22T10:21:24;4.30;99.90
43087;DHT22;28708;52.224;6.924;2023-11-22T10:23:52;4.40;99.90
43087;DHT22;28708;52.224;6.924;2023-11-22T10:26:19;4.50;99.90
43087;DHT22;28708;52.224;6.924;2023-11-22T10:28:45;4.60;99.90
43087;DHT22;28708;52.224;6.924;2023-11-22T10:31:11;4.70;99.90
43087;DHT22;28708;52.224;6.924;2023-11-22T10:33:40;4.80;99.90
43087;DHT22;28708;52.224;6.924;2023-11-22T10:36:07;4.90;99.90
43087;DHT22;28708;52.224;6.924;2023-11-22T10:38:34;5.10;99.90
43087;DHT22;28708;52.224;6.924;2023-11-22T10:41:00;4.90;99.90
43087;DHT22;28708;52.224;6.924;2023-11-22T10:43:30;4.90;99.90
43087;DHT22;28708;52.224;6.924;2023-11-22T10:45:58;4.90;99.90
43087;DHT22;28708;52.224;6.924;2023-11-22T10:48:24;4.80;99.90
43087;DHT22;28708;52.224;6.924;2023-11-22T10:50:53;4.70;99.90
43087;DHT22;28708;52.224;6.924;2023-11-22T10:53:33;4.70;99.90
43087;DHT22;28708;52.224;6.924;2023-11-22T10:56:19;4.70;99.90
43087;DHT22;28708;52.224;6.924;2023-11-22T10:58:57;4.80;99.90
43087;DHT22;28708;52.224;6.924;2023-11-22T11:01:25;4.80;99.90
43087;DHT22;28708;52.224;6.924;2023-11-22T11:04:02;4.90;99.90
43087;DHT22;28708;52.224;6.924;2023-11-22T11:06:34;5.00;99.90
43087;DHT22;28708;52.224;6.924;2023-11-22T11:09:01;5.20;99.90
43087;DHT22;28708;52.224;6.924;2023-11-22T11:11:32;5.30;99.90
43087;DHT22;28708;52.224;6.924;2023-11-22T11:13:58;5.40;99.90
43087;DHT22;28708;52.224;6.924;2023-11-22T11:16:25;5.70;99.90
43087;DHT22;28708;52.224;6.924;2023-11-22T11:18:52;5.80;99.90
43087;DHT22;28708;52.224;6.924;2023-11-22T11:21:19;6.10;99.90
43087;DHT22;28708;52.224;6.924;2023-11-22T11:23:44;6.10;99.90
43087;DHT22;28708;52.224;6.924;2023-11-22T11:26:19;6.30;99.90
43087;DHT22;28708;52.224;6.924;2023-11-22T11:28:48;6.20;99.90
43087;DHT22;28708;52.224;6.924;2023-11-22T11:31:14;5.80;99.90
43087;DHT22;28708;52.224;6.924;2023-11-22T11:36:33;5.50;99.90
43087;DHT22;28708;52.224;6.924;2023-11-22T11:39:05;5.30;99.90
43087;DHT22;28708;52.224;6.924;2023-11-22T11:41:35;5.00;99.90
43087;DHT22;28708;52.224;6.924;2023-11-22T11:44:07;5.00;99.90
43087;DHT22;28708;52.224;6.924;2023-11-22T11:46:34;5.10;99.90
43087;DHT22;28708;52.224;6.924;2023-11-22T11:48:59;5.20;99.90
43087;DHT22;28708;52.224;6.924;2023-11-22T11:51:28;5.30;99.90
43087;DHT22;28708;52.224;6.924;2023-11-22T11:53:56;5.30;99.90
43087;DHT22;28708;52.224;6.924;2023-11-22T11:56:22;5.40;99.90
43087;DHT22;28708;52.224;6.924;2023-11-22T11:58:50;5.30;99.90
43087;DHT22;28708;52.224;6.924;2023-11-22T12:01:17;5.40;99.90
43087;DHT22;28708;52.224;6.924;2023-11-22T12:03:43;5.40;99.90
43087;DHT22;28708;52.224;6.924;2023-11-22T12:06:09;5.60;99.90
43087;DHT22;28708;52.224;6.924;2023-11-22T12:08:35;5.60;99.90
43087;DHT22;28708;52.224;6.924;2023-11-22T12:11:04;5.60;99.90
43087;DHT22;28708;52.224;6.924;2023-11-22T12:13:32;5.50;99.90
43087;DHT22;28708;52.224;6.924;2023-11-22T12:15:59;5.60;99.90
43087;DHT22;28708;52.224;6.924;2023-11-22T12:18:25;5.60;99.90
43087;DHT22;28708;52.224;6.924;2023-11-22T12:20:58;5.60;99.90
43087;DHT22;28708;52.224;6.924;2023-11-22T12:23:25;5.60;99.90
43087;DHT22;28708;52.224;6.924;2023-11-22T12:26:01;5.70;99.90
43087;DHT22;28708;52.224;6.924;2023-11-22T12:28:28;5.70;99.90
43087;DHT22;28708;52.224;6.924;2023-11-22T12:30:54;5.80;99.90
43087;DHT22;28708;52.224;6.924;2023-11-22T12:33:21;5.70;99.90
43087;DHT22;28708;52.224;6.924;2023-11-22T12:35:47;5.80;99.90
43087;DHT22;28708;52.224;6.924;2023-11-22T12:38:14;5.90;99.90
43087;DHT22;28708;52.224;6.924;2023-11-22T12:40:45;5.90;99.90
43087;DHT22;28708;52.224;6.924;2023-11-22T12:43:13;5.90;99.90
43087;DHT22;28708;52.224;6.924;2023-11-22T12:45:39;6.00;99.90
43087;DHT22;28708;52.224;6.924;2023-11-22T12:48:23;5.90;99.90
43087;DHT22;28708;52.224;6.924;2023-11-22T12:50:51;5.90;99.90
43087;DHT22;28708;52.224;6.924;2023-11-22T12:53:17;5.80;99.90
43087;DHT22;28708;52.224;6.924;2023-11-22T12:55:51;5.70;99.90
43087;DHT22;28708;52.224;6.924;2023-11-22T12:58:17;5.70;99.90
43087;DHT22;28708;52.224;6.924;2023-11-22T13:00:45;5.60;99.90
43087;DHT22;28708;52.224;6.924;2023-11-22T13:03:12;5.70;99.90
43087;DHT22;28708;52.224;6.924;2023-11-22T13:05:42;5.80;99.90
43087;DHT22;28708;52.224;6.924;2023-11-22T13:08:09;5.80;99.90
43087;DHT22;28708;52.224;6.924;2023-11-22T13:10:45;5.70;99.90
43087;DHT22;28708;52.224;6.924;2023-11-22T13:13:24;5.70;99.90
43087;DHT22;28708;52.224;6.924;2023-11-22T13:15:50;5.80;99.90
43087;DHT22;28708;52.224;6.924;2023-11-22T13:18:17;5.90;99.90
43087;DHT22;28708;52.224;6.924;2023-11-22T13:20:43;5.90;99.90
43087;DHT22;28708;52.224;6.924;2023-11-22T13:23:09;5.80;99.90
43087;DHT22;28708;52.224;6.924;2023-11-22T13:25:35;5.80;99.90
43087;DHT22;28708;52.224;6.924;2023-11-22T13:28:01;5.70;99.90
43087;DHT22;28708;52.224;6.924;2023-11-22T13:30:27;5.70;99.90
43087;DHT22;28708;52.224;6.924;2023-11-22T13:32:55;5.70;99.90
43087;DHT22;28708;52.224;6.924;2023-11-22T13:35:26;5.60;99.90
43087;DHT22;28708;52.224;6.924;2023-11-22T13:37:57;5.60;99.90
43087;DHT22;28708;52.224;6.924;2023-11-22T13:40:23;5.60;99.90
43087;DHT22;28708;52.224;6.924;2023-11-22T13:42:51;5.60;99.90
43087;DHT22;28708;52.224;6.924;2023-11-22T13:45:20;5.50;99.90
43087;DHT22;28708;52.224;6.924;2023-11-22T13:47:55;5.50;99.90
43087;DHT22;28708;52.224;6.924;2023-11-22T13:50:26;5.50;99.90
43087;DHT22;28708;52.224;6.924;2023-11-22T13:52:56;5.50;99.90
43087;DHT22;28708;52.224;6.924;2023-11-22T13:55:23;5.50;99.90
43087;DHT22;28708;52.224;6.924;2023-11-22T13:57:53;5.50;99.90
43087;DHT22;28708;52.224;6.924;2023-11-22T14:00:20;5.50;99.90
43087;DHT22;28708;52.224;6.924;2023-11-22T14:02:49;5.50;99.90
43087;DHT22;28708;52.224;6.924;2023-11-22T14:05:17;5.50;99.90
43087;DHT22;28708;52.224;6.924;2023-11-22T14:07:43;5.50;99.90
43087;DHT22;28708;52.224;6.924;2023-11-22T14:10:10;5.50;99.90
43087;DHT22;28708;52.224;6.924;2023-11-22T14:12:37;5.50;99.90
43087;DHT22;28708;52.224;6.924;2023-11-22T14:15:03;5.50;99.90
43087;DHT22;28708;52.224;6.924;2023-11-22T14:17:32;5.50;99.90
43087;DHT22;28708;52.224;6.924;2023-11-22T14:19:58;5.50;99.90
43087;DHT22;28708;52.224;6.924;2023-11-22T14:22:23;5.50;99.90
43087;DHT22;28708;52.224;6.924;2023-11-22T14:24:51;5.40;99.90
43087;DHT22;28708;52.224;6.924;2023-11-22T14:27:18;5.50;99.90
43087;DHT22;28708;52.224;6.924;2023-11-22T14:29:45;5.40;99.90
43087;DHT22;28708;52.224;6.924;2023-11-22T14:32:14;5.50;99.90
43087;DHT22;28708;52.224;6.924;2023-11-22T14:34:40;5.40;99.90
43087;DHT22;28708;52.224;6.924;2023-11-22T14:37:12;5.40;99.90
43087;DHT22;28708;52.224;6.924;2023-11-22T14:39:39;5.40;99.90
43087;DHT22;28708;52.224;6.924;2023-11-22T14:42:06;5.50;99.90
43087;DHT22;28708;52.224;6.924;2023-11-22T14:44:35;5.40;99.90
43087;DHT22;28708;52.224;6.924;2023-11-22T14:47:01;5.40;99.90
43087;DHT22;28708;52.224;6.924;2023-11-22T14:49:38;5.40;99.90
43087;DHT22;28708;52.224;6.924;2023-11-22T14:52:04;5.40;99.90
43087;DHT22;28708;52.224;6.924;2023-11-22T14:54:30;5.40;99.90
43087;DHT22;28708;52.224;6.924;2023-11-22T14:56:56;5.50;99.90
43087;DHT22;28708;52.224;6.924;2023-11-22T14:59:26;5.40;99.90
43087;DHT22;28708;52.224;6.924;2023-11-22T15:01:52;5.40;99.90
43087;DHT22;28708;52.224;6.924;2023-11-22T15:04:18;5.40;99.90
43087;DHT22;28708;52.224;6.924;2023-11-22T15:06:44;5.40;99.90
43087;DHT22;28708;52.224;6.924;2023-11-22T15:09:10;5.40;99.90
43087;DHT22;28708;52.224;6.924;2023-11-22T15:11:43;5.40;99.90
43087;DHT22;28708;52.224;6.924;2023-11-22T15:14:09;5.50;99.90
43087;DHT22;28708;52.224;6.924;2023-11-22T15:16:36;5.40;99.90
43087;DHT22;28708;52.224;6.924;2023-11-22T15:19:03;5.40;99.90
43087;DHT22;28708;52.224;6.924;2023-11-22T15:21:30;5.40;99.90
43087;DHT22;28708;52.224;6.924;2023-11-22T15:23:56;5.40;99.90
43087;DHT22;28708;52.224;6.924;2023-11-22T15:26:22;5.40;99.90
43087;DHT22;28708;52.224;6.924;2023-11-22T15:28:48;5.40;99.90
43087;DHT22;28708;52.224;6.924;2023-11-22T15:31:17;5.30;99.90
43087;DHT22;28708;52.224;6.924;2023-11-22T15:33:44;5.30;99.90
43087;DHT22;28708;52.224;6.924;2023-11-22T15:36:10;5.30;99.90
43087;DHT22;28708;52.224;6.924;2023-11-22T15:38:36;5.30;99.90
43087;DHT22;28708;52.224;6.924;2023-11-22T15:41:02;5.30;99.90
43087;DHT22;28708;52.224;6.924;2023-11-22T15:43:30;5.20;99.90
43087;DHT22;28708;52.224;6.924;2023-11-22T15:45:56;5.20;99.90
43087;DHT22;28708;52.224;6.924;2023-11-22T15:48:23;5.20;99.90